Time;durP1;ratioP1;P1;durP2;ratioP2;P2;SDS_P1;SDS_P2;PMS_P1;PMS_P2;Temp;Humidity;BMP_temperature;BMP_pressure;BME280_temperature;BME280_humidity;BME280_pressure;Samples;Min_cycle;Max_cycle;Signal;HPM_P1;HPM_P2
2023/06/02 00:01:43;;;;;;;8.40;5.53;;;;;;;;;;767727;181;919870;-69
2023/06/02 00:04:07;;;;;;;5.43;4.73;;;;;;;;;;771527;180;919315;-67
2023/06/02 00:06:34;;;;;;;7.10;5.13;;;;;;;;;;765282;182;918044;-68
2023/06/02 00:09:00;;;;;;;6.77;4.93;;;;;;;;;;766900;181;916845;-67
2023/06/02 00:11:25;;;;;;;6.70;4.67;;;;;;;;;;773053;180;919651;-68
2023/06/02 00:13:51;;;;;;;6.60;4.80;;;;;;;;;;766796;181;919571;-67
2023/06/02 00:16:17;;;;;;;5.70;4.63;;;;;;;;;;765985;181;1009830;-68
2023/06/02 00:18:43;;;;;;;6.90;5.10;;;;;;;;;;774401;181;816819;-67
2023/06/02 00:21:09;;;;;;;7.50;4.63;;;;;;;;;;758668;181;919690;-69
2023/06/02 00:23:35;;;;;;;7.80;4.80;;;;;;;;;;766422;181;919682;-68
2023/06/02 00:26:00;;;;;;;6.80;4.93;;;;;;;;;;762547;181;853914;-68
2023/06/02 00:28:26;;;;;;;11.47;5.17;;;;;;;;;;764187;183;885432;-68
2023/06/02 00:30:52;;;;;;;6.63;4.97;;;;;;;;;;766257;181;930222;-67
2023/06/02 00:33:18;;;;;;;5.75;4.32;;;;;;;;;;762633;181;919354;-67
2023/06/02 00:35:44;;;;;;;4.67;3.63;;;;;;;;;;756670;181;918040;-68
2023/06/02 00:38:09;;;;;;;8.40;6.60;;;;;;;;;;742444;188;919299;-68
2023/06/02 00:40:35;;;;;;;7.87;4.70;;;;;;;;;;762035;181;918252;-68
2023/06/02 00:43:01;;;;;;;6.93;5.00;;;;;;;;;;772352;181;884673;-68
2023/06/02 00:45:27;;;;;;;6.43;4.83;;;;;;;;;;763585;181;919528;-69
2023/06/02 00:47:53;;;;;;;8.87;4.83;;;;;;;;;;760859;181;919660;-67
2023/06/02 00:50:19;;;;;;;7.10;5.00;;;;;;;;;;740563;185;918953;-69
2023/06/02 00:52:45;;;;;;;10.80;4.53;;;;;;;;;;754212;183;882090;-67
2023/06/02 00:55:10;;;;;;;5.60;4.47;;;;;;;;;;763048;180;920056;-68
2023/06/02 00:57:40;;;;;;;5.60;4.32;;;;;;;;;;756666;181;919750;-68
2023/06/02 01:00:05;;;;;;;6.30;4.77;;;;;;;;;;773648;180;921086;-69
2023/06/02 01:02:29;;;;;;;6.47;4.97;;;;;;;;;;766528;180;922326;-70
2023/06/02 01:04:57;;;;;;;10.25;5.53;;;;;;;;;;768561;181;927374;-67
2023/06/02 01:07:24;;;;;;;9.67;7.00;;;;;;;;;;769676;182;819033;-69
2023/06/02 01:09:47;;;;;;;13.70;4.80;;;;;;;;;;765704;182;818501;-68
2023/06/02 01:12:13;;;;;;;5.45;4.70;;;;;;;;;;764997;181;920630;-69
2023/06/02 01:14:39;;;;;;;7.10;4.60;;;;;;;;;;762966;182;918495;-67
2023/06/02 01:17:04;;;;;;;6.17;4.63;;;;;;;;;;765883;184;921754;-68
2023/06/02 01:19:31;;;;;;;7.10;4.33;;;;;;;;;;765882;181;912276;-68
2023/06/02 01:21:59;;;;;;;7.72;4.22;;;;;;;;;;768763;181;918880;-69
2023/06/02 01:24:29;;;;;;;7.50;4.77;;;;;;;;;;774964;181;815157;-71
2023/06/02 01:26:51;;;;;;;10.10;4.53;;;;;;;;;;758013;184;919874;-67
2023/06/02 01:29:17;;;;;;;8.77;4.90;;;;;;;;;;759569;181;919788;-67
2023/06/02 01:31:46;;;;;;;5.12;4.57;;;;;;;;;;775966;181;824174;-69
2023/06/02 01:34:11;;;;;;;5.57;4.73;;;;;;;;;;756106;184;918972;-67
2023/06/02 01:36:37;;;;;;;10.00;5.13;;;;;;;;;;755621;183;877776;-68
2023/06/02 01:39:02;;;;;;;11.50;7.07;;;;;;;;;;760153;185;822851;-68
2023/06/02 01:41:28;;;;;;;7.53;5.30;;;;;;;;;;771150;182;921943;-68
2023/06/02 01:43:54;;;;;;;6.20;4.30;;;;;;;;;;754168;184;810454;-67
2023/06/02 01:46:20;;;;;;;5.90;4.93;;;;;;;;;;759898;185;817678;-68
2023/06/02 01:48:46;;;;;;;5.40;4.77;;;;;;;;;;771200;182;915842;-67
2023/06/02 01:51:12;;;;;;;9.33;4.20;;;;;;;;;;755332;181;816696;-68
2023/06/02 01:53:37;;;;;;;9.70;5.80;;;;;;;;;;762454;181;921746;-68
2023/06/02 01:56:05;;;;;;;10.13;6.47;;;;;;;;;;762082;185;917663;-68
2023/06/02 01:58:30;;;;;;;9.80;5.07;;;;;;;;;;764185;178;816768;-68
2023/06/02 02:00:57;;;;;;;8.50;5.60;;;;;;;;;;756847;183;919430;-68
2023/06/02 02:03:22;;;;;;;7.00;4.67;;;;;;;;;;760208;182;1018775;-68
2023/06/02 02:05:48;;;;;;;11.60;5.30;;;;;;;;;;771438;181;816157;-67
2023/06/02 02:08:16;;;;;;;11.23;6.67;;;;;;;;;;768589;181;815926;-69
2023/06/02 02:10:40;;;;;;;5.75;4.97;;;;;;;;;;767068;181;917734;-68
2023/06/02 02:13:05;;;;;;;6.97;5.60;;;;;;;;;;768227;182;918036;-68
2023/06/02 02:15:31;;;;;;;8.33;5.30;;;;;;;;;;765881;181;922097;-67
2023/06/02 02:17:57;;;;;;;8.37;7.00;;;;;;;;;;764024;182;916208;-68
2023/06/02 02:20:23;;;;;;;11.13;5.40;;;;;;;;;;766588;181;867539;-67
2023/06/02 02:22:49;;;;;;;9.20;6.00;;;;;;;;;;742773;186;915762;-67
2023/06/02 02:25:15;;;;;;;9.57;6.67;;;;;;;;;;752913;185;914765;-69
2023/06/02 02:27:40;;;;;;;8.05;5.80;;;;;;;;;;747023;185;1019324;-67
2023/06/02 02:30:07;;;;;;;8.07;5.90;;;;;;;;;;771938;181;918889;-67
2023/06/02 02:32:34;;;;;;;9.77;5.73;;;;;;;;;;767596;181;819901;-69
2023/06/02 02:34:59;;;;;;;9.00;6.27;;;;;;;;;;758566;184;915564;-67
2023/06/02 02:37:24;;;;;;;10.50;5.50;;;;;;;;;;759576;182;919148;-66
2023/06/02 02:39:50;;;;;;;7.77;5.80;;;;;;;;;;769005;180;918664;-67
2023/06/02 02:42:16;;;;;;;8.40;5.90;;;;;;;;;;763072;181;919020;-66
2023/06/02 02:44:42;;;;;;;8.20;6.33;;;;;;;;;;772064;180;917633;-66
2023/06/02 02:47:08;;;;;;;11.67;6.90;;;;;;;;;;766684;181;918150;-66
2023/06/02 02:49:34;;;;;;;8.60;6.10;;;;;;;;;;760782;181;917898;-66
2023/06/02 02:52:00;;;;;;;10.35;5.50;;;;;;;;;;750793;184;920339;-65
2023/06/02 02:54:26;;;;;;;7.53;5.90;;;;;;;;;;772166;181;819596;-67
2023/06/02 02:56:52;;;;;;;11.70;5.70;;;;;;;;;;770152;181;918678;-66
2023/06/02 02:59:18;;;;;;;6.70;5.00;;;;;;;;;;767716;180;918862;-65
2023/06/02 03:01:46;;;;;;;9.03;5.03;;;;;;;;;;771016;180;912386;-66
2023/06/02 03:04:10;;;;;;;9.43;6.10;;;;;;;;;;757760;184;918255;-66
2023/06/02 03:06:40;;;;;;;9.67;6.07;;;;;;;;;;765247;181;920286;-65
2023/06/02 03:09:02;;;;;;;13.32;6.30;;;;;;;;;;770149;182;918884;-65
2023/06/02 03:11:28;;;;;;;10.00;6.50;;;;;;;;;;758271;181;918885;-66
2023/06/02 03:13:54;;;;;;;10.20;6.10;;;;;;;;;;767653;181;917778;-66
2023/06/02 03:16:20;;;;;;;8.67;5.40;;;;;;;;;;764163;181;919323;-66
2023/06/02 03:18:45;;;;;;;10.13;6.10;;;;;;;;;;760225;184;921226;-66
2023/06/02 03:21:11;;;;;;;8.07;6.17;;;;;;;;;;759559;182;911404;-66
2023/06/02 03:23:37;;;;;;;8.90;5.93;;;;;;;;;;769606;181;922897;-67
2023/06/02 03:26:03;;;;;;;7.20;5.60;;;;;;;;;;764767;181;919620;-64
2023/06/02 03:28:29;;;;;;;7.43;5.80;;;;;;;;;;763546;180;869613;-66
2023/06/02 03:30:55;;;;;;;10.20;6.93;;;;;;;;;;764111;181;918471;-65
2023/06/02 03:33:20;;;;;;;12.30;5.37;;;;;;;;;;767996;181;839618;-65
2023/06/02 03:35:46;;;;;;;9.77;5.70;;;;;;;;;;763777;181;941471;-66
2023/06/02 03:38:12;;;;;;;8.90;5.40;;;;;;;;;;753506;184;918145;-65
2023/06/02 03:40:38;;;;;;;9.30;5.60;;;;;;;;;;753944;184;918567;-66
2023/06/02 03:43:04;;;;;;;9.53;6.67;;;;;;;;;;780399;176;919365;-65
2023/06/02 03:45:30;;;;;;;10.27;6.70;;;;;;;;;;767390;180;918220;-65
2023/06/02 03:47:55;;;;;;;9.20;6.80;;;;;;;;;;768723;181;922293;-66
2023/06/02 03:50:21;;;;;;;8.50;7.00;;;;;;;;;;771632;181;857958;-64
2023/06/02 03:52:47;;;;;;;8.40;7.00;;;;;;;;;;767306;181;1020463;-65
2023/06/02 03:55:13;;;;;;;10.60;6.63;;;;;;;;;;767346;181;918845;-66
2023/06/02 03:57:39;;;;;;;10.83;6.50;;;;;;;;;;771437;181;919544;-64
2023/06/02 04:00:10;;;;;;;9.40;5.53;;;;;;;;;;768796;180;921299;-64
2023/06/02 04:02:31;;;;;;;9.40;6.53;;;;;;;;;;756805;182;916576;-66
2023/06/02 04:04:57;;;;;;;10.20;6.35;;;;;;;;;;765550;182;916194;-65
2023/06/02 04:07:23;;;;;;;11.67;7.20;;;;;;;;;;773366;181;861523;-65
2023/06/02 04:09:49;;;;;;;6.73;5.70;;;;;;;;;;762894;181;919655;-66
2023/06/02 04:12:15;;;;;;;12.13;7.40;;;;;;;;;;767840;181;816237;-65
2023/06/02 04:14:40;;;;;;;8.30;5.70;;;;;;;;;;769815;181;918396;-66
2023/06/02 04:17:07;;;;;;;14.27;6.67;;;;;;;;;;768866;181;919673;-65
2023/06/02 04:19:32;;;;;;;14.25;6.55;;;;;;;;;;757300;185;843488;-64
2023/06/02 04:21:58;;;;;;;16.43;6.30;;;;;;;;;;768330;181;918714;-65
2023/06/02 04:24:24;;;;;;;12.60;7.30;;;;;;;;;;756458;183;912256;-66
2023/06/02 04:26:50;;;;;;;11.70;7.10;;;;;;;;;;762397;181;820589;-65
2023/06/02 04:29:16;;;;;;;9.50;5.60;;;;;;;;;;769520;181;813881;-67
2023/06/02 04:31:43;;;;;;;9.77;6.30;;;;;;;;;;764988;181;918601;-65
2023/06/02 04:34:09;;;;;;;10.90;7.00;;;;;;;;;;761779;181;928473;-67
2023/06/02 04:36:36;;;;;;;10.57;7.37;;;;;;;;;;742805;186;914519;-67
2023/06/02 04:39:00;;;;;;;12.47;6.80;;;;;;;;;;747090;185;918668;-66
2023/06/02 04:41:26;;;;;;;14.50;7.80;;;;;;;;;;761868;182;919403;-65
2023/06/02 04:43:52;;;;;;;12.43;7.05;;;;;;;;;;764967;181;1021893;-66
2023/06/02 04:46:19;;;;;;;12.93;7.00;;;;;;;;;;771792;181;920207;-66
2023/06/02 04:48:44;;;;;;;10.50;6.57;;;;;;;;;;763341;182;908312;-64
2023/06/02 04:51:10;;;;;;;11.37;7.70;;;;;;;;;;761024;182;919375;-66
2023/06/02 04:53:36;;;;;;;10.97;7.33;;;;;;;;;;767522;179;849549;-67
2023/06/02 04:56:01;;;;;;;12.53;7.87;;;;;;;;;;766616;181;923926;-65
2023/06/02 04:58:27;;;;;;;12.70;6.90;;;;;;;;;;770408;180;920437;-67
2023/06/02 05:00:53;;;;;;;14.80;7.40;;;;;;;;;;769472;181;637971;-65
2023/06/02 05:03:19;;;;;;;11.13;6.43;;;;;;;;;;766623;181;918328;-65
2023/06/02 05:05:45;;;;;;;15.30;8.20;;;;;;;;;;763829;181;917837;-67
2023/06/02 05:08:11;;;;;;;18.07;7.50;;;;;;;;;;765496;181;918959;-65
2023/06/02 05:10:36;;;;;;;12.07;7.73;;;;;;;;;;768262;181;918169;-66
2023/06/02 05:13:03;;;;;;;12.63;7.97;;;;;;;;;;765080;181;927042;-66
2023/06/02 05:15:28;;;;;;;13.43;7.60;;;;;;;;;;767420;181;816772;-68
2023/06/02 05:17:55;;;;;;;11.07;7.77;;;;;;;;;;768973;181;810269;-66
2023/06/02 05:20:20;;;;;;;15.40;8.27;;;;;;;;;;765827;180;919839;-66
2023/06/02 05:22:46;;;;;;;16.37;7.80;;;;;;;;;;761179;182;920984;-65
2023/06/02 05:25:12;;;;;;;15.83;8.30;;;;;;;;;;759804;182;919183;-66
2023/06/02 05:27:37;;;;;;;15.65;8.77;;;;;;;;;;774179;180;912355;-66
2023/06/02 05:30:04;;;;;;;16.37;8.23;;;;;;;;;;768681;180;920824;-68
2023/06/02 05:32:30;;;;;;;10.23;7.10;;;;;;;;;;767032;181;919077;-66
2023/06/02 05:34:55;;;;;;;17.70;7.90;;;;;;;;;;771724;180;917817;-67
2023/06/02 05:37:21;;;;;;;10.93;7.30;;;;;;;;;;755049;182;916442;-68
2023/06/02 05:39:47;;;;;;;12.53;8.00;;;;;;;;;;762981;182;913799;-67
2023/06/02 05:42:13;;;;;;;14.27;8.43;;;;;;;;;;770821;181;914196;-67
2023/06/02 05:44:39;;;;;;;12.07;7.63;;;;;;;;;;767463;181;916665;-70
2023/06/02 05:47:05;;;;;;;17.50;8.50;;;;;;;;;;766056;181;914896;-68
2023/06/02 05:49:31;;;;;;;15.10;9.03;;;;;;;;;;761513;181;905241;-67
2023/06/02 05:51:57;;;;;;;14.50;8.00;;;;;;;;;;759041;183;915197;-71
2023/06/02 05:54:22;;;;;;;13.60;8.20;;;;;;;;;;756769;181;920545;-66
2023/06/02 05:56:48;;;;;;;11.13;6.90;;;;;;;;;;764365;181;915238;-70
2023/06/02 05:59:14;;;;;;;15.83;8.53;;;;;;;;;;771221;180;915012;-69
2023/06/02 06:01:40;;;;;;;14.40;8.40;;;;;;;;;;765850;181;915401;-68
2023/06/02 06:04:06;;;;;;;12.60;7.83;;;;;;;;;;761172;181;917520;-66
2023/06/02 06:06:32;;;;;;;10.63;7.93;;;;;;;;;;757465;184;919154;-67
2023/06/02 06:08:57;;;;;;;18.17;6.97;;;;;;;;;;755315;181;919120;-68
2023/06/02 06:11:24;;;;;;;15.03;8.17;;;;;;;;;;761644;181;914686;-69
2023/06/02 06:13:49;;;;;;;19.60;8.60;;;;;;;;;;770908;180;823733;-67
2023/06/02 06:16:15;;;;;;;10.83;7.30;;;;;;;;;;766883;182;919321;-66
2023/06/02 06:18:41;;;;;;;9.50;5.73;;;;;;;;;;763191;181;918187;-71
2023/06/02 06:21:07;;;;;;;6.80;4.07;;;;;;;;;;767721;181;919255;-71
2023/06/02 06:23:33;;;;;;;14.33;6.70;;;;;;;;;;770626;181;822145;-70
2023/06/02 06:25:59;;;;;;;12.10;7.23;;;;;;;;;;766088;181;919141;-67
2023/06/02 06:28:24;;;;;;;11.57;5.50;;;;;;;;;;764154;181;920708;-68
2023/06/02 06:30:50;;;;;;;12.00;5.43;;;;;;;;;;766682;181;816454;-69
2023/06/02 06:33:16;;;;;;;10.10;6.50;;;;;;;;;;767542;181;918037;-68
2023/06/02 06:35:42;;;;;;;13.10;6.77;;;;;;;;;;767095;181;816850;-71
2023/06/02 06:38:08;;;;;;;10.63;6.33;;;;;;;;;;768414;180;933093;-71
2023/06/02 06:40:34;;;;;;;13.93;8.37;;;;;;;;;;763967;181;919559;-68
2023/06/02 06:42:59;;;;;;;17.20;8.20;;;;;;;;;;764765;181;915491;-68
2023/06/02 06:45:25;;;;;;;15.43;7.12;;;;;;;;;;760075;184;816848;-71
2023/06/02 06:47:51;;;;;;;20.07;7.40;;;;;;;;;;772671;181;915644;-67
2023/06/02 06:50:17;;;;;;;16.37;7.83;;;;;;;;;;769964;181;918368;-71
2023/06/02 06:52:43;;;;;;;8.43;6.27;;;;;;;;;;769956;180;918563;-71
2023/06/02 06:55:09;;;;;;;11.60;7.13;;;;;;;;;;761244;185;917249;-70
2023/06/02 06:57:34;;;;;;;20.40;8.47;;;;;;;;;;765826;181;915333;-68
2023/06/02 07:00:00;;;;;;;9.20;6.20;;;;;;;;;;764513;181;918249;-67
2023/06/02 07:02:26;;;;;;;12.23;6.40;;;;;;;;;;765433;181;919817;-67
2023/06/02 07:04:52;;;;;;;13.33;7.47;;;;;;;;;;762931;181;918645;-67
2023/06/02 07:07:18;;;;;;;13.73;7.83;;;;;;;;;;756423;184;916983;-68
2023/06/02 07:09:44;;;;;;;10.70;5.77;;;;;;;;;;769591;181;918392;-71
2023/06/02 07:12:10;;;;;;;11.13;7.20;;;;;;;;;;775106;178;919690;-70
2023/06/02 07:14:35;;;;;;;7.37;4.80;;;;;;;;;;762723;181;916046;-66
2023/06/02 07:17:01;;;;;;;15.53;6.73;;;;;;;;;;767543;180;919651;-70
2023/06/02 07:19:27;;;;;;;14.70;7.00;;;;;;;;;;772406;182;881446;-66
2023/06/02 07:21:53;;;;;;;9.83;4.93;;;;;;;;;;767292;181;920587;-70
2023/06/02 07:24:19;;;;;;;12.00;6.13;;;;;;;;;;767040;181;832412;-67
2023/06/02 07:26:45;;;;;;;12.20;5.70;;;;;;;;;;766843;181;915183;-67
2023/06/02 07:29:10;;;;;;;7.27;4.37;;;;;;;;;;765686;181;908915;-67
2023/06/02 07:31:36;;;;;;;11.20;6.00;;;;;;;;;;761568;183;916037;-67
2023/06/02 07:34:03;;;;;;;11.83;6.50;;;;;;;;;;745465;184;911990;-70
2023/06/02 07:36:28;;;;;;;6.83;5.00;;;;;;;;;;750628;184;822143;-68
2023/06/02 07:38:54;;;;;;;11.50;6.57;;;;;;;;;;772935;180;816122;-71
2023/06/02 07:41:20;;;;;;;7.07;3.83;;;;;;;;;;768914;181;916660;-67
2023/06/02 07:43:46;;;;;;;11.13;7.07;;;;;;;;;;773995;180;915753;-72
2023/06/02 07:46:12;;;;;;;11.70;6.43;;;;;;;;;;760263;181;919013;-69
2023/06/02 07:48:38;;;;;;;13.03;6.70;;;;;;;;;;761955;181;917096;-66
2023/06/02 07:51:04;;;;;;;16.60;6.57;;;;;;;;;;760112;184;914740;-67
2023/06/02 07:53:30;;;;;;;9.03;7.00;;;;;;;;;;736901;188;920874;-67
2023/06/02 07:55:55;;;;;;;11.50;5.83;;;;;;;;;;763522;181;946101;-66
2023/06/02 07:58:21;;;;;;;10.83;5.20;;;;;;;;;;772565;181;919760;-71
2023/06/02 08:00:47;;;;;;;10.20;6.00;;;;;;;;;;767838;181;919357;-71
2023/06/02 08:03:13;;;;;;;10.50;6.03;;;;;;;;;;765346;181;918993;-67
2023/06/02 08:05:39;;;;;;;14.90;6.40;;;;;;;;;;762451;181;924889;-70
2023/06/02 08:08:05;;;;;;;10.70;5.43;;;;;;;;;;768648;181;918579;-74
2023/06/02 08:10:30;;;;;;;10.83;5.87;;;;;;;;;;760729;181;852152;-68
2023/06/02 08:12:57;;;;;;;9.53;5.63;;;;;;;;;;741350;187;918953;-67
2023/06/02 08:15:22;;;;;;;9.83;5.30;;;;;;;;;;770024;181;918318;-72
2023/06/02 08:17:48;;;;;;;10.23;5.63;;;;;;;;;;769169;181;918556;-74
2023/06/02 08:20:16;;;;;;;9.50;5.17;;;;;;;;;;753615;183;918558;-73
2023/06/02 08:22:40;;;;;;;9.00;5.43;;;;;;;;;;756471;185;919097;-67
2023/06/02 08:25:06;;;;;;;10.50;4.90;;;;;;;;;;756564;181;920923;-78
2023/06/02 08:27:32;;;;;;;11.27;6.47;;;;;;;;;;766210;181;918788;-66
2023/06/02 08:29:58;;;;;;;9.40;5.77;;;;;;;;;;770011;180;919901;-73
2023/06/02 08:32:24;;;;;;;8.73;4.30;;;;;;;;;;779107;178;901772;-74
2023/06/02 08:34:50;;;;;;;7.73;5.17;;;;;;;;;;764092;181;917090;-67
2023/06/02 08:37:16;;;;;;;15.13;5.05;;;;;;;;;;769153;180;919216;-67
2023/06/02 08:39:42;;;;;;;8.73;5.60;;;;;;;;;;773094;181;911684;-73
2023/06/02 08:42:08;;;;;;;8.13;5.57;;;;;;;;;;769431;181;878639;-67
2023/06/02 08:44:35;;;;;;;12.37;5.27;;;;;;;;;;756751;184;917282;-66
2023/06/02 08:47:00;;;;;;;5.33;3.60;;;;;;;;;;771038;180;1021793;-67
2023/06/02 08:49:25;;;;;;;11.48;5.37;;;;;;;;;;759241;182;919691;-73
2023/06/02 08:51:52;;;;;;;10.43;5.07;;;;;;;;;;765635;181;918933;-65
2023/06/02 08:54:17;;;;;;;7.07;4.97;;;;;;;;;;769708;181;918645;-73
2023/06/02 08:56:44;;;;;;;12.30;4.93;;;;;;;;;;768342;180;815077;-77
2023/06/02 08:59:09;;;;;;;7.83;4.13;;;;;;;;;;769717;181;815355;-66
2023/06/02 09:01:35;;;;;;;7.97;5.10;;;;;;;;;;760868;181;917658;-76
2023/06/02 09:04:00;;;;;;;9.20;4.43;;;;;;;;;;763085;182;910128;-76
2023/06/02 09:06:26;;;;;;;10.40;5.77;;;;;;;;;;766387;181;942938;-72
2023/06/02 09:08:53;;;;;;;11.10;4.90;;;;;;;;;;766459;180;914237;-67
2023/06/02 09:11:19;;;;;;;11.13;4.77;;;;;;;;;;769017;181;920400;-74
2023/06/02 09:13:45;;;;;;;16.83;5.13;;;;;;;;;;763071;181;919093;-75
2023/06/02 09:16:11;;;;;;;16.10;5.87;;;;;;;;;;768737;181;916944;-74
2023/06/02 09:18:36;;;;;;;9.77;4.77;;;;;;;;;;760119;184;917727;-67
2023/06/02 09:21:02;;;;;;;5.67;3.50;;;;;;;;;;766437;181;918290;-68
2023/06/02 09:23:34;;;;;;;21.33;5.43;;;;;;;;;;760890;181;919619;-66
2023/06/02 09:26:00;;;;;;;16.33;5.10;;;;;;;;;;759075;184;844743;-79
2023/06/02 09:28:26;;;;;;;11.33;5.20;;;;;;;;;;759095;181;917726;-76
2023/06/02 09:30:51;;;;;;;8.97;5.67;;;;;;;;;;767827;180;915612;-76
2023/06/02 09:33:17;;;;;;;14.90;5.23;;;;;;;;;;763094;181;919134;-77
2023/06/02 09:35:44;;;;;;;9.13;4.90;;;;;;;;;;764572;181;921786;-73
2023/06/02 09:38:10;;;;;;;11.43;5.17;;;;;;;;;;763456;178;918792;-77
2023/06/02 09:40:35;;;;;;;11.67;4.87;;;;;;;;;;758342;181;918933;-75
2023/06/02 09:43:01;;;;;;;13.53;4.80;;;;;;;;;;765401;181;933311;-67
2023/06/02 09:45:27;;;;;;;9.20;5.00;;;;;;;;;;762204;181;917665;-67
2023/06/02 09:47:52;;;;;;;7.70;4.50;;;;;;;;;;768616;180;916656;-67
2023/06/02 09:50:24;;;;;;;9.17;4.57;;;;;;;;;;763017;181;918305;-68
2023/06/02 09:52:56;;;;;;;7.70;4.57;;;;;;;;;;765501;182;818330;-73
2023/06/02 09:55:21;;;;;;;11.80;5.13;;;;;;;;;;770610;180;856469;-76
2023/06/02 09:57:47;;;;;;;11.10;5.90;;;;;;;;;;765970;181;916025;-74
2023/06/02 10:00:14;;;;;;;10.20;5.33;;;;;;;;;;764263;181;918916;-73
2023/06/02 10:02:39;;;;;;;8.50;3.87;;;;;;;;;;767901;181;894086;-72
2023/06/02 10:05:05;;;;;;;18.10;5.83;;;;;;;;;;763081;181;915392;-75
2023/06/02 10:07:50;;;;;;;11.00;4.83;;;;;;;;;;767088;180;918681;-65
2023/06/02 10:10:20;;;;;;;9.90;4.87;;;;;;;;;;741297;181;816574;-66
2023/06/02 10:12:46;;;;;;;9.57;4.93;;;;;;;;;;765972;181;918531;-76
2023/06/02 10:15:17;;;;;;;9.27;5.27;;;;;;;;;;769018;180;885070;-66
2023/06/02 10:17:43;;;;;;;8.93;4.87;;;;;;;;;;755585;184;915408;-79
2023/06/02 10:20:15;;;;;;;10.90;5.20;;;;;;;;;;750275;184;901755;-67
2023/06/02 10:22:45;;;;;;;8.43;4.90;;;;;;;;;;730975;186;926450;-66
2023/06/02 10:25:23;;;;;;;8.67;5.33;;;;;;;;;;763161;183;918215;-68
2023/06/02 10:27:49;;;;;;;12.53;7.47;;;;;;;;;;747223;186;914250;-76
2023/06/02 10:30:20;;;;;;;9.00;5.23;;;;;;;;;;754651;184;919355;-74
2023/06/02 10:32:47;;;;;;;12.13;6.50;;;;;;;;;;762347;182;848683;-68
2023/06/02 10:35:13;;;;;;;8.03;5.63;;;;;;;;;;768004;181;896587;-69
2023/06/02 10:37:39;;;;;;;9.27;5.10;;;;;;;;;;755191;184;863715;-67
2023/06/02 10:40:04;;;;;;;8.70;4.80;;;;;;;;;;750849;184;918950;-77
2023/06/02 10:42:31;;;;;;;8.90;5.50;;;;;;;;;;760028;182;931022;-67
2023/06/02 10:45:02;;;;;;;8.45;5.30;;;;;;;;;;762917;182;919349;-76
2023/06/02 10:47:35;;;;;;;7.97;4.80;;;;;;;;;;759678;182;920520;-74
2023/06/02 10:50:02;;;;;;;10.40;5.27;;;;;;;;;;766599;181;818423;-66
2023/06/02 10:52:27;;;;;;;9.77;5.87;;;;;;;;;;767939;181;919038;-67
2023/06/02 10:55:10;;;;;;;11.27;5.17;;;;;;;;;;763424;181;916276;-73
2023/06/02 10:57:41;;;;;;;20.27;6.23;;;;;;;;;;760591;184;918470;-66
2023/06/02 11:00:22;;;;;;;13.60;5.20;;;;;;;;;;757510;182;865893;-75
2023/06/02 11:02:48;;;;;;;10.10;5.00;;;;;;;;;;757338;183;920903;-74
2023/06/02 11:05:16;;;;;;;11.33;5.20;;;;;;;;;;760343;181;919307;-66
2023/06/02 11:07:42;;;;;;;10.10;4.70;;;;;;;;;;764376;181;821921;-72
2023/06/02 11:10:08;;;;;;;9.73;5.10;;;;;;;;;;772817;181;920726;-73
2023/06/02 11:12:40;;;;;;;10.23;5.30;;;;;;;;;;767960;180;878690;-68
2023/06/02 11:15:13;;;;;;;11.57;5.20;;;;;;;;;;760020;181;914168;-66
2023/06/02 11:17:40;;;;;;;7.30;4.93;;;;;;;;;;765638;180;918856;-67
2023/06/02 11:20:05;;;;;;;8.90;4.50;;;;;;;;;;771693;180;919224;-68
2023/06/02 11:22:32;;;;;;;8.33;5.10;;;;;;;;;;767032;181;920440;-75
2023/06/02 11:24:56;;;;;;;12.02;5.85;;;;;;;;;;767432;181;841265;-67
2023/06/02 11:27:39;;;;;;;9.13;5.30;;;;;;;;;;771181;181;822689;-67
2023/06/02 11:30:06;;;;;;;9.00;5.40;;;;;;;;;;761409;180;948266;-76
2023/06/02 11:32:31;;;;;;;11.30;5.57;;;;;;;;;;758766;181;898687;-77
2023/06/02 11:34:59;;;;;;;8.75;5.45;;;;;;;;;;763732;181;1019775;-68
2023/06/02 11:37:25;;;;;;;8.67;5.67;;;;;;;;;;764965;181;822023;-74
2023/06/02 11:39:53;;;;;;;15.60;5.63;;;;;;;;;;763727;179;843214;-67
2023/06/02 11:42:18;;;;;;;8.23;4.70;;;;;;;;;;758885;181;857392;-76
2023/06/02 11:44:46;;;;;;;15.97;6.40;;;;;;;;;;761721;181;913617;-74
2023/06/02 11:47:12;;;;;;;9.23;5.43;;;;;;;;;;765797;181;919167;-68
2023/06/02 11:49:38;;;;;;;7.80;5.40;;;;;;;;;;765655;180;918628;-77
2023/06/02 11:52:04;;;;;;;14.53;6.30;;;;;;;;;;768242;181;975073;-67
2023/06/02 11:54:30;;;;;;;8.53;5.23;;;;;;;;;;770697;181;818839;-66
2023/06/02 11:56:56;;;;;;;10.43;5.70;;;;;;;;;;764178;181;919401;-66
2023/06/02 11:59:22;;;;;;;10.40;5.27;;;;;;;;;;765818;181;924659;-75
2023/06/02 12:01:48;;;;;;;16.50;4.80;;;;;;;;;;761043;181;915393;-74
2023/06/02 12:04:14;;;;;;;10.93;4.97;;;;;;;;;;774994;180;918943;-66
2023/06/02 12:06:45;;;;;;;11.00;6.40;;;;;;;;;;767937;181;1018697;-75
2023/06/02 12:09:11;;;;;;;8.15;4.75;;;;;;;;;;758918;182;1018981;-75
2023/06/02 12:11:36;;;;;;;9.93;3.70;;;;;;;;;;771273;181;917657;-68
2023/06/02 12:14:02;;;;;;;8.57;4.20;;;;;;;;;;761967;181;921201;-76
2023/06/02 12:16:28;;;;;;;10.87;6.03;;;;;;;;;;762977;181;917335;-68
2023/06/02 12:18:54;;;;;;;17.80;5.40;;;;;;;;;;764474;181;889620;-75
2023/06/02 12:21:23;;;;;;;7.93;4.20;;;;;;;;;;770436;181;814562;-74
2023/06/02 12:23:48;;;;;;;6.43;3.93;;;;;;;;;;764424;181;917210;-76
2023/06/02 12:26:15;;;;;;;15.60;5.67;;;;;;;;;;762247;181;918553;-68
2023/06/02 12:28:40;;;;;;;12.07;5.40;;;;;;;;;;768984;181;919913;-67
2023/06/02 12:31:06;;;;;;;8.33;5.13;;;;;;;;;;765018;181;918976;-68
2023/06/02 12:33:32;;;;;;;10.87;5.13;;;;;;;;;;765251;181;817417;-79
2023/06/02 12:35:59;;;;;;;11.35;5.15;;;;;;;;;;766528;181;920907;-72
2023/06/02 12:38:25;;;;;;;7.87;5.23;;;;;;;;;;752957;184;937408;-68
2023/06/02 12:40:51;;;;;;;8.20;4.77;;;;;;;;;;756124;183;928070;-77
2023/06/02 12:43:19;;;;;;;10.20;5.20;;;;;;;;;;766446;181;916751;-66
2023/06/02 12:45:43;;;;;;;7.03;3.73;;;;;;;;;;766487;182;1018805;-69
2023/06/02 12:48:09;;;;;;;15.33;5.07;;;;;;;;;;761320;181;1123206;-73
2023/06/02 12:50:35;;;;;;;9.90;4.35;;;;;;;;;;765953;181;919429;-67
2023/06/02 12:53:01;;;;;;;11.97;4.80;;;;;;;;;;769404;181;919099;-75
2023/06/02 12:55:27;;;;;;;7.03;4.63;;;;;;;;;;763073;181;907828;-75
2023/06/02 12:57:52;;;;;;;10.57;5.10;;;;;;;;;;761573;181;920536;-75
2023/06/02 13:00:18;;;;;;;10.50;4.83;;;;;;;;;;764707;181;923659;-70
2023/06/02 13:02:44;;;;;;;10.93;5.33;;;;;;;;;;769568;180;938169;-77
2023/06/02 13:05:10;;;;;;;12.43;4.73;;;;;;;;;;766358;181;919242;-68
2023/06/02 13:07:37;;;;;;;12.30;5.40;;;;;;;;;;760105;180;912777;-77
2023/06/02 13:10:02;;;;;;;10.20;4.70;;;;;;;;;;769299;181;817956;-69
2023/06/02 13:12:28;;;;;;;8.20;4.60;;;;;;;;;;764860;180;917402;-77
2023/06/02 13:14:54;;;;;;;9.03;3.93;;;;;;;;;;767523;180;918994;-69
2023/06/02 13:17:19;;;;;;;11.17;4.33;;;;;;;;;;769861;181;918301;-77
2023/06/02 13:19:47;;;;;;;8.93;4.53;;;;;;;;;;767468;181;918071;-68
2023/06/02 13:22:11;;;;;;;8.70;4.63;;;;;;;;;;759969;183;819605;-68
2023/06/02 13:24:37;;;;;;;7.47;4.50;;;;;;;;;;775404;180;813549;-69
2023/06/02 13:27:03;;;;;;;8.80;4.43;;;;;;;;;;763765;181;943466;-68
2023/06/02 13:29:29;;;;;;;10.60;5.30;;;;;;;;;;765036;181;919678;-69
2023/06/02 13:31:55;;;;;;;7.53;4.10;;;;;;;;;;768720;181;836041;-70
2023/06/02 13:34:20;;;;;;;7.30;5.13;;;;;;;;;;764146;181;1005118;-76
2023/06/02 13:36:46;;;;;;;12.63;5.20;;;;;;;;;;742064;185;921728;-78
2023/06/02 13:39:13;;;;;;;9.07;3.60;;;;;;;;;;764107;181;924385;-69
2023/06/02 13:41:39;;;;;;;4.80;2.90;;;;;;;;;;777817;181;616086;-67
2023/06/02 13:44:05;;;;;;;7.77;4.70;;;;;;;;;;764272;181;918451;-69
2023/06/02 13:46:30;;;;;;;9.05;6.00;;;;;;;;;;754252;184;1020581;-69
2023/06/02 13:48:56;;;;;;;7.67;3.63;;;;;;;;;;758285;185;919297;-77
2023/06/02 13:51:22;;;;;;;7.20;4.10;;;;;;;;;;758569;181;846505;-78
2023/06/02 13:53:48;;;;;;;12.50;4.50;;;;;;;;;;766105;180;918235;-76
2023/06/02 13:56:14;;;;;;;7.57;3.80;;;;;;;;;;766341;180;919680;-67
2023/06/02 13:58:40;;;;;;;6.47;4.57;;;;;;;;;;773217;180;712512;-78
2023/06/02 14:01:06;;;;;;;8.20;4.10;;;;;;;;;;767256;181;818283;-78
2023/06/02 14:03:31;;;;;;;8.40;3.87;;;;;;;;;;769121;181;641077;-70
2023/06/02 14:05:57;;;;;;;14.73;4.20;;;;;;;;;;763999;181;918141;-77
2023/06/02 14:08:23;;;;;;;7.57;3.17;;;;;;;;;;767514;181;919170;-69
2023/06/02 14:10:49;;;;;;;7.47;2.87;;;;;;;;;;760835;181;918502;-68
2023/06/02 14:13:15;;;;;;;9.00;4.47;;;;;;;;;;760330;184;935455;-76
2023/06/02 14:15:41;;;;;;;7.10;3.83;;;;;;;;;;751923;182;921742;-69
2023/06/02 14:18:06;;;;;;;7.23;3.60;;;;;;;;;;763568;181;818067;-69